sensor_id;sensor_type;location;lat;lon;timestamp;pressure;altitude;pressure_sealevel;temperature;humidity
77013;BME280;67260;53.130;17.982;2023-08-21T00:02:02;101713.48;;;21.18;75.98
77013;BME280;67260;53.130;17.982;2023-08-21T00:04:29;101707.76;;;21.13;75.94
77013;BME280;67260;53.130;17.982;2023-08-21T00:06:54;101707.48;;;21.10;75.99
77013;BME280;67260;53.130;17.982;2023-08-21T00:09:21;101702.41;;;21.06;76.03
77013;BME280;67260;53.130;17.982;2023-08-21T00:11:47;101705.13;;;21.03;76.22
77013;BME280;67260;53.130;17.982;2023-08-21T00:14:13;101704.81;;;20.99;76.26
77013;BME280;67260;53.130;17.982;2023-08-21T00:16:39;101701.04;;;20.95;76.07
77013;BME280;67260;53.130;17.982;2023-08-21T00:19:05;101692.01;;;20.95;76.39
77013;BME280;67260;53.130;17.982;2023-08-21T00:21:31;101696.09;;;20.93;76.40
77013;BME280;67260;53.130;17.982;2023-08-21T00:23:58;101696.89;;;20.91;76.28
77013;BME280;67260;53.130;17.982;2023-08-21T00:26:25;101699.11;;;20.87;76.14
77013;BME280;67260;53.130;17.982;2023-08-21T00:28:51;101698.37;;;20.84;76.14
77013;BME280;67260;53.130;17.982;2023-08-21T00:31:17;101697.68;;;20.80;76.37
77013;BME280;67260;53.130;17.982;2023-08-21T00:33:43;101696.75;;;20.73;76.37
77013;BME280;67260;53.130;17.982;2023-08-21T00:36:09;101697.16;;;20.68;76.51
77013;BME280;67260;53.130;17.982;2023-08-21T00:38:36;101695.75;;;20.63;76.51
77013;BME280;67260;53.130;17.982;2023-08-21T00:41:02;101695.48;;;20.60;76.63
77013;BME280;67260;53.130;17.982;2023-08-21T00:43:28;101696.80;;;20.57;76.57
77013;BME280;67260;53.130;17.982;2023-08-21T00:45:54;101698.35;;;20.53;76.57
77013;BME280;67260;53.130;17.982;2023-08-21T00:48:20;101696.45;;;20.48;76.64
77013;BME280;67260;53.130;17.982;2023-08-21T00:50:47;101699.61;;;20.46;76.75
77013;BME280;67260;53.130;17.982;2023-08-21T00:53:14;101702.94;;;20.45;76.66
77013;BME280;67260;53.130;17.982;2023-08-21T00:55:41;101707.13;;;20.40;76.73
77013;BME280;67260;53.130;17.982;2023-08-21T00:58:09;101705.81;;;20.37;76.89
77013;BME280;67260;53.130;17.982;2023-08-21T01:00:37;101702.84;;;20.36;76.98
77013;BME280;67260;53.130;17.982;2023-08-21T01:03:04;101704.89;;;20.38;76.99
77013;BME280;67260;53.130;17.982;2023-08-21T01:05:30;101706.70;;;20.40;76.94
77013;BME280;67260;53.130;17.982;2023-08-21T01:08:01;101707.35;;;20.40;76.93
77013;BME280;67260;53.130;17.982;2023-08-21T01:13:40;101712.89;;;20.42;76.92
77013;BME280;67260;53.130;17.982;2023-08-21T01:16:13;101711.43;;;20.42;76.74
77013;BME280;67260;53.130;17.982;2023-08-21T01:18:40;101711.64;;;20.41;76.78
77013;BME280;67260;53.130;17.982;2023-08-21T01:21:07;101710.21;;;20.35;76.87
77013;BME280;67260;53.130;17.982;2023-08-21T01:23:37;101708.55;;;20.32;76.82
77013;BME280;67260;53.130;17.982;2023-08-21T01:26:04;101714.66;;;20.25;76.95
77013;BME280;67260;53.130;17.982;2023-08-21T01:28:32;101709.00;;;20.19;77.10
77013;BME280;67260;53.130;17.982;2023-08-21T01:31:27;101707.23;;;20.12;77.08
77013;BME280;67260;53.130;17.982;2023-08-21T01:33:59;101703.17;;;20.08;77.35
77013;BME280;67260;53.130;17.982;2023-08-21T01:36:27;101703.90;;;20.07;77.27
77013;BME280;67260;53.130;17.982;2023-08-21T01:38:54;101703.91;;;20.07;77.39
77013;BME280;67260;53.130;17.982;2023-08-21T01:41:23;101700.36;;;20.05;77.47
77013;BME280;67260;53.130;17.982;2023-08-21T01:43:49;101699.55;;;20.02;77.47
77013;BME280;67260;53.130;17.982;2023-08-21T01:46:16;101695.95;;;19.99;77.51
77013;BME280;67260;53.130;17.982;2023-08-21T01:48:42;101699.25;;;19.96;77.40
77013;BME280;67260;53.130;17.982;2023-08-21T01:51:08;101704.34;;;19.91;77.32
77013;BME280;67260;53.130;17.982;2023-08-21T01:53:34;101700.66;;;19.87;77.44
77013;BME280;67260;53.130;17.982;2023-08-21T01:56:00;101705.74;;;19.88;77.35
77013;BME280;67260;53.130;17.982;2023-08-21T01:58:26;101706.27;;;19.87;77.24
77013;BME280;67260;53.130;17.982;2023-08-21T02:00:52;101709.27;;;19.85;77.22
77013;BME280;67260;53.130;17.982;2023-08-21T02:03:18;101712.39;;;19.82;77.17
77013;BME280;67260;53.130;17.982;2023-08-21T02:05:46;101715.04;;;19.79;77.06
77013;BME280;67260;53.130;17.982;2023-08-21T02:08:13;101707.45;;;19.76;77.05
77013;BME280;67260;53.130;17.982;2023-08-21T02:10:52;101710.23;;;19.74;77.07
77013;BME280;67260;53.130;17.982;2023-08-21T02:13:19;101710.31;;;19.70;76.94
77013;BME280;67260;53.130;17.982;2023-08-21T02:15:45;101713.73;;;19.64;76.73
77013;BME280;67260;53.130;17.982;2023-08-21T02:18:12;101713.58;;;19.56;76.85
77013;BME280;67260;53.130;17.982;2023-08-21T02:20:38;101719.46;;;19.47;76.74
77013;BME280;67260;53.130;17.982;2023-08-21T02:23:04;101719.66;;;19.42;76.97
77013;BME280;67260;53.130;17.982;2023-08-21T02:25:31;101716.10;;;19.40;76.92
77013;BME280;67260;53.130;17.982;2023-08-21T02:27:57;101720.21;;;19.38;76.87
77013;BME280;67260;53.130;17.982;2023-08-21T02:30:24;101723.84;;;19.35;76.76
77013;BME280;67260;53.130;17.982;2023-08-21T02:32:53;101719.88;;;19.32;76.82
77013;BME280;67260;53.130;17.982;2023-08-21T02:35:20;101714.17;;;19.29;76.84
77013;BME280;67260;53.130;17.982;2023-08-21T02:37:46;101718.21;;;19.26;76.79
77013;BME280;67260;53.130;17.982;2023-08-21T02:40:12;101718.60;;;19.24;76.94
77013;BME280;67260;53.130;17.982;2023-08-21T02:42:38;101716.41;;;19.19;76.95
77013;BME280;67260;53.130;17.982;2023-08-21T02:45:05;101715.45;;;19.16;77.02
77013;BME280;67260;53.130;17.982;2023-08-21T02:47:37;101716.36;;;19.14;76.85
77013;BME280;67260;53.130;17.982;2023-08-21T02:50:05;101710.11;;;19.12;76.97
77013;BME280;67260;53.130;17.982;2023-08-21T02:52:32;101709.63;;;19.11;76.82
77013;BME280;67260;53.130;17.982;2023-08-21T02:54:58;101709.96;;;19.09;76.88
77013;BME280;67260;53.130;17.982;2023-08-21T02:57:26;101708.25;;;19.08;76.58
77013;BME280;67260;53.130;17.982;2023-08-21T02:59:53;101711.41;;;19.01;76.62
77013;BME280;67260;53.130;17.982;2023-08-21T03:02:20;101714.81;;;18.96;76.57
77013;BME280;67260;53.130;17.982;2023-08-21T03:04:47;101715.23;;;18.90;76.64
77013;BME280;67260;53.130;17.982;2023-08-21T03:07:13;101713.36;;;18.84;76.63
77013;BME280;67260;53.130;17.982;2023-08-21T03:09:40;101709.84;;;18.78;76.75
77013;BME280;67260;53.130;17.982;2023-08-21T03:12:07;101707.42;;;18.73;76.70
77013;BME280;67260;53.130;17.982;2023-08-21T03:14:34;101706.94;;;18.67;76.72
77013;BME280;67260;53.130;17.982;2023-08-21T03:17:00;101710.05;;;18.61;76.82
77013;BME280;67260;53.130;17.982;2023-08-21T03:19:26;101719.27;;;18.58;76.97
77013;BME280;67260;53.130;17.982;2023-08-21T03:21:52;101723.00;;;18.54;76.82
77013;BME280;67260;53.130;17.982;2023-08-21T03:24:19;101726.05;;;18.46;76.81
77013;BME280;67260;53.130;17.982;2023-08-21T03:26:45;101735.21;;;18.38;76.81
77013;BME280;67260;53.130;17.982;2023-08-21T03:29:11;101740.84;;;18.33;76.90
77013;BME280;67260;53.130;17.982;2023-08-21T03:31:37;101743.84;;;18.27;76.81
77013;BME280;67260;53.130;17.982;2023-08-21T03:34:03;101742.21;;;18.25;77.00
77013;BME280;67260;53.130;17.982;2023-08-21T03:36:29;101738.31;;;18.25;76.90
77013;BME280;67260;53.130;17.982;2023-08-21T03:39:01;101737.67;;;18.24;76.74
77013;BME280;67260;53.130;17.982;2023-08-21T03:41:27;101745.20;;;18.22;76.73
77013;BME280;67260;53.130;17.982;2023-08-21T03:43:56;101740.92;;;18.18;76.73
77013;BME280;67260;53.130;17.982;2023-08-21T03:46:22;101733.39;;;18.16;76.82
77013;BME280;67260;53.130;17.982;2023-08-21T03:48:49;101735.11;;;18.14;76.75
77013;BME280;67260;53.130;17.982;2023-08-21T03:51:16;101739.48;;;18.10;76.59
77013;BME280;67260;53.130;17.982;2023-08-21T03:53:45;101735.86;;;18.07;76.89
77013;BME280;67260;53.130;17.982;2023-08-21T03:56:12;101729.80;;;18.05;76.62
77013;BME280;67260;53.130;17.982;2023-08-21T03:58:38;101728.80;;;18.06;76.76
77013;BME280;67260;53.130;17.982;2023-08-21T04:01:04;101727.42;;;18.16;76.54
77013;BME280;67260;53.130;17.982;2023-08-21T04:03:30;101734.74;;;18.16;76.37
77013;BME280;67260;53.130;17.982;2023-08-21T04:05:56;101735.48;;;18.17;76.31
77013;BME280;67260;53.130;17.982;2023-08-21T04:08:22;101736.52;;;18.18;76.33
77013;BME280;67260;53.130;17.982;2023-08-21T04:10:48;101739.48;;;18.18;76.28
77013;BME280;67260;53.130;17.982;2023-08-21T04:13:14;101740.34;;;18.18;76.29
77013;BME280;67260;53.130;17.982;2023-08-21T04:15:44;101737.92;;;18.14;76.20
77013;BME280;67260;53.130;17.982;2023-08-21T04:18:11;101740.16;;;18.14;76.37
77013;BME280;67260;53.130;17.982;2023-08-21T04:20:38;101743.30;;;18.14;76.29
77013;BME280;67260;53.130;17.982;2023-08-21T04:23:06;101743.38;;;18.17;76.19
77013;BME280;67260;53.130;17.982;2023-08-21T04:25:32;101739.00;;;18.19;76.18
77013;BME280;67260;53.130;17.982;2023-08-21T04:27:58;101743.29;;;18.20;76.17
77013;BME280;67260;53.130;17.982;2023-08-21T04:30:24;101743.79;;;18.27;76.07
77013;BME280;67260;53.130;17.982;2023-08-21T04:32:50;101742.51;;;18.37;75.93
77013;BME280;67260;53.130;17.982;2023-08-21T04:35:17;101740.55;;;18.47;75.79
77013;BME280;67260;53.130;17.982;2023-08-21T04:37:45;101737.45;;;18.59;75.54
77013;BME280;67260;53.130;17.982;2023-08-21T04:40:12;101741.35;;;18.70;75.28
77013;BME280;67260;53.130;17.982;2023-08-21T04:42:38;101743.37;;;18.77;74.99
77013;BME280;67260;53.130;17.982;2023-08-21T04:45:05;101746.52;;;18.83;74.81
77013;BME280;67260;53.130;17.982;2023-08-21T04:47:32;101747.10;;;18.85;74.68
77013;BME280;67260;53.130;17.982;2023-08-21T04:49:59;101744.80;;;18.91;74.61
77013;BME280;67260;53.130;17.982;2023-08-21T04:52:28;101743.76;;;18.98;74.51
77013;BME280;67260;53.130;17.982;2023-08-21T04:54:55;101746.98;;;19.06;74.34
77013;BME280;67260;53.130;17.982;2023-08-21T04:57:21;101748.80;;;19.17;74.03
77013;BME280;67260;53.130;17.982;2023-08-21T04:59:48;101751.00;;;19.22;73.82
77013;BME280;67260;53.130;17.982;2023-08-21T05:02:15;101747.90;;;19.26;73.29
77013;BME280;67260;53.130;17.982;2023-08-21T05:04:41;101752.04;;;19.20;73.12
77013;BME280;67260;53.130;17.982;2023-08-21T05:07:09;101748.55;;;19.21;73.35
77013;BME280;67260;53.130;17.982;2023-08-21T05:09:35;101754.56;;;19.33;73.27
77013;BME280;67260;53.130;17.982;2023-08-21T05:12:04;101756.74;;;19.45;73.10
77013;BME280;67260;53.130;17.982;2023-08-21T05:14:31;101759.70;;;19.70;72.46
77013;BME280;67260;53.130;17.982;2023-08-21T05:16:58;101761.20;;;20.78;70.33
77013;BME280;67260;53.130;17.982;2023-08-21T05:19:27;101759.27;;;22.34;67.11
77013;BME280;67260;53.130;17.982;2023-08-21T05:21:53;101756.55;;;23.73;64.13
77013;BME280;67260;53.130;17.982;2023-08-21T05:24:20;101756.31;;;25.08;61.65
77013;BME280;67260;53.130;17.982;2023-08-21T05:26:50;101755.48;;;26.34;59.72
77013;BME280;67260;53.130;17.982;2023-08-21T05:29:16;101757.52;;;26.96;58.30
77013;BME280;67260;53.130;17.982;2023-08-21T05:31:42;101752.21;;;27.71;56.20
77013;BME280;67260;53.130;17.982;2023-08-21T05:34:08;101758.20;;;28.59;54.44
77013;BME280;67260;53.130;17.982;2023-08-21T05:36:35;101761.20;;;29.39;51.81
77013;BME280;67260;53.130;17.982;2023-08-21T05:39:02;101766.77;;;30.06;50.37
77013;BME280;67260;53.130;17.982;2023-08-21T05:41:32;101767.65;;;30.58;49.22
77013;BME280;67260;53.130;17.982;2023-08-21T05:44:00;101764.21;;;31.14;47.61
77013;BME280;67260;53.130;17.982;2023-08-21T05:46:26;101756.95;;;31.74;46.25
77013;BME280;67260;53.130;17.982;2023-08-21T05:48:55;101759.98;;;32.23;44.57
77013;BME280;67260;53.130;17.982;2023-08-21T05:51:22;101757.88;;;32.65;43.17
77013;BME280;67260;53.130;17.982;2023-08-21T05:53:49;101761.95;;;32.96;41.86
77013;BME280;67260;53.130;17.982;2023-08-21T05:56:15;101763.91;;;33.46;40.10
77013;BME280;67260;53.130;17.982;2023-08-21T05:58:41;101760.59;;;33.91;39.03
77013;BME280;67260;53.130;17.982;2023-08-21T06:01:07;101761.45;;;34.19;38.18
77013;BME280;67260;53.130;17.982;2023-08-21T06:03:33;101760.94;;;34.51;36.97
77013;BME280;67260;53.130;17.982;2023-08-21T06:06:09;101760.23;;;35.13;35.62
77013;BME280;67260;53.130;17.982;2023-08-21T06:08:35;101762.55;;;35.67;34.85
77013;BME280;67260;53.130;17.982;2023-08-21T06:11:01;101764.84;;;36.21;33.10
77013;BME280;67260;53.130;17.982;2023-08-21T06:13:27;101762.21;;;36.64;32.42
77013;BME280;67260;53.130;17.982;2023-08-21T06:15:54;101761.60;;;36.88;31.41
77013;BME280;67260;53.130;17.982;2023-08-21T06:18:21;101765.02;;;37.13;30.84
77013;BME280;67260;53.130;17.982;2023-08-21T06:20:48;101763.45;;;37.51;29.61
77013;BME280;67260;53.130;17.982;2023-08-21T06:23:14;101769.54;;;37.70;29.27
77013;BME280;67260;53.130;17.982;2023-08-21T06:25:41;101764.34;;;37.99;28.68
77013;BME280;67260;53.130;17.982;2023-08-21T06:28:10;101767.64;;;38.32;28.00
77013;BME280;67260;53.130;17.982;2023-08-21T06:30:36;101766.41;;;38.69;27.50
77013;BME280;67260;53.130;17.982;2023-08-21T06:33:02;101768.71;;;39.28;26.49
77013;BME280;67260;53.130;17.982;2023-08-21T06:35:28;101767.40;;;39.58;25.98
77013;BME280;67260;53.130;17.982;2023-08-21T06:37:54;101768.55;;;39.75;25.33
77013;BME280;67260;53.130;17.982;2023-08-21T06:40:20;101764.38;;;40.24;24.89
77013;BME280;67260;53.130;17.982;2023-08-21T06:42:47;101764.70;;;40.79;24.22
77013;BME280;67260;53.130;17.982;2023-08-21T06:45:18;101762.13;;;41.11;22.79
77013;BME280;67260;53.130;17.982;2023-08-21T06:47:44;101761.75;;;41.15;22.99
77013;BME280;67260;53.130;17.982;2023-08-21T06:50:10;101766.23;;;41.52;22.42
77013;BME280;67260;53.130;17.982;2023-08-21T06:52:36;101767.56;;;41.79;22.38
77013;BME280;67260;53.130;17.982;2023-08-21T06:55:02;101767.02;;;42.13;21.85
77013;BME280;67260;53.130;17.982;2023-08-21T06:57:28;101770.35;;;42.58;21.71
77013;BME280;67260;53.130;17.982;2023-08-21T06:59:54;101767.09;;;43.21;20.98
77013;BME280;67260;53.130;17.982;2023-08-21T07:02:20;101763.66;;;43.59;20.42
77013;BME280;67260;53.130;17.982;2023-08-21T07:04:46;101753.13;;;43.52;19.84
77013;BME280;67260;53.130;17.982;2023-08-21T07:07:12;101749.90;;;43.43;19.90
77013;BME280;67260;53.130;17.982;2023-08-21T07:09:38;101750.52;;;43.50;19.79
77013;BME280;67260;53.130;17.982;2023-08-21T07:12:04;101752.71;;;43.82;19.62
77013;BME280;67260;53.130;17.982;2023-08-21T07:14:32;101760.50;;;44.11;19.30
77013;BME280;67260;53.130;17.982;2023-08-21T07:16:58;101760.40;;;44.45;18.88
77013;BME280;67260;53.130;17.982;2023-08-21T07:19:24;101757.75;;;44.62;18.52
77013;BME280;67260;53.130;17.982;2023-08-21T07:21:50;101761.35;;;44.98;18.21
77013;BME280;67260;53.130;17.982;2023-08-21T07:24:16;101764.38;;;45.21;17.94
77013;BME280;67260;53.130;17.982;2023-08-21T07:26:42;101765.52;;;45.26;17.45
77013;BME280;67260;53.130;17.982;2023-08-21T07:29:08;101767.31;;;45.16;17.66
77013;BME280;67260;53.130;17.982;2023-08-21T07:31:35;101761.27;;;44.99;17.10
77013;BME280;67260;53.130;17.982;2023-08-21T07:34:02;101764.94;;;44.48;17.46
77013;BME280;67260;53.130;17.982;2023-08-21T07:36:34;101768.69;;;44.39;17.64
77013;BME280;67260;53.130;17.982;2023-08-21T07:39:01;101769.48;;;44.42;17.69
77013;BME280;67260;53.130;17.982;2023-08-21T07:41:28;101774.38;;;44.29;17.40
77013;BME280;67260;53.130;17.982;2023-08-21T07:43:55;101773.13;;;44.05;17.58
77013;BME280;67260;53.130;17.982;2023-08-21T07:46:21;101772.84;;;43.74;17.59
77013;BME280;67260;53.130;17.982;2023-08-21T07:48:49;101772.30;;;43.56;17.96
77013;BME280;67260;53.130;17.982;2023-08-21T07:51:18;101775.17;;;43.83;17.93
77013;BME280;67260;53.130;17.982;2023-08-21T07:53:45;101774.75;;;43.87;17.59
77013;BME280;67260;53.130;17.982;2023-08-21T07:56:11;101772.57;;;43.68;17.64
77013;BME280;67260;53.130;17.982;2023-08-21T07:58:37;101769.05;;;43.77;17.62
77013;BME280;67260;53.130;17.982;2023-08-21T08:01:03;101766.40;;;44.04;17.35
77013;BME280;67260;53.130;17.982;2023-08-21T08:03:40;101767.89;;;44.29;17.54
77013;BME280;67260;53.130;17.982;2023-08-21T08:06:07;101768.25;;;44.53;17.02
77013;BME280;67260;53.130;17.982;2023-08-21T08:08:33;101766.83;;;44.41;16.76
77013;BME280;67260;53.130;17.982;2023-08-21T08:11:03;101765.30;;;44.12;16.94
77013;BME280;67260;53.130;17.982;2023-08-21T08:13:31;101769.80;;;43.85;17.27
77013;BME280;67260;53.130;17.982;2023-08-21T08:15:59;101768.38;;;43.95;17.21
77013;BME280;67260;53.130;17.982;2023-08-21T08:18:28;101765.77;;;44.01;17.21
77013;BME280;67260;53.130;17.982;2023-08-21T08:20:56;101761.02;;;44.45;17.53
77013;BME280;67260;53.130;17.982;2023-08-21T08:23:27;101757.08;;;45.33;17.10
77013;BME280;67260;53.130;17.982;2023-08-21T08:25:55;101753.66;;;45.82;16.16
77013;BME280;67260;53.130;17.982;2023-08-21T08:28:25;101750.20;;;46.22;16.39
77013;BME280;67260;53.130;17.982;2023-08-21T08:30:59;101752.27;;;46.09;15.77
77013;BME280;67260;53.130;17.982;2023-08-21T08:33:27;101752.40;;;45.71;15.83
77013;BME280;67260;53.130;17.982;2023-08-21T08:35:53;101754.10;;;45.40;16.17
77013;BME280;67260;53.130;17.982;2023-08-21T08:38:19;101753.26;;;45.38;16.22
77013;BME280;67260;53.130;17.982;2023-08-21T08:40:49;101752.50;;;45.41;16.16
77013;BME280;67260;53.130;17.982;2023-08-21T08:43:17;101740.86;;;45.35;16.08
77013;BME280;67260;53.130;17.982;2023-08-21T08:45:44;101738.55;;;45.52;16.12
77013;BME280;67260;53.130;17.982;2023-08-21T08:48:13;101736.86;;;45.34;15.93
77013;BME280;67260;53.130;17.982;2023-08-21T08:50:39;101738.89;;;45.07;16.11
77013;BME280;67260;53.130;17.982;2023-08-21T08:53:06;101742.21;;;45.24;15.67
77013;BME280;67260;53.130;17.982;2023-08-21T08:55:33;101739.96;;;45.17;15.76
77013;BME280;67260;53.130;17.982;2023-08-21T08:58:00;101742.20;;;45.25;15.68
77013;BME280;67260;53.130;17.982;2023-08-21T09:00:26;101742.14;;;45.10;15.72
77013;BME280;67260;53.130;17.982;2023-08-21T09:02:54;101743.98;;;45.04;15.63
77013;BME280;67260;53.130;17.982;2023-08-21T09:05:20;101738.60;;;44.97;15.61
77013;BME280;67260;53.130;17.982;2023-08-21T09:08:19;101738.13;;;44.90;15.76
77013;BME280;67260;53.130;17.982;2023-08-21T09:10:44;101741.88;;;44.77;15.44
77013;BME280;67260;53.130;17.982;2023-08-21T09:13:16;101740.66;;;44.58;15.74
77013;BME280;67260;53.130;17.982;2023-08-21T09:15:44;101730.86;;;44.80;15.93
77013;BME280;67260;53.130;17.982;2023-08-21T09:18:13;101729.86;;;45.30;15.45
77013;BME280;67260;53.130;17.982;2023-08-21T09:20:42;101724.44;;;45.40;15.10
77013;BME280;67260;53.130;17.982;2023-08-21T09:23:13;101719.35;;;45.24;14.57
77013;BME280;67260;53.130;17.982;2023-08-21T09:25:39;101715.83;;;44.84;14.75
77013;BME280;67260;53.130;17.982;2023-08-21T09:28:07;101710.83;;;44.79;14.94
77013;BME280;67260;53.130;17.982;2023-08-21T09:30:51;101709.31;;;44.73;15.11
77013;BME280;67260;53.130;17.982;2023-08-21T09:33:19;101708.45;;;44.77;15.38
77013;BME280;67260;53.130;17.982;2023-08-21T09:35:47;101705.18;;;44.71;15.51
77013;BME280;67260;53.130;17.982;2023-08-21T09:38:13;101709.19;;;45.04;15.59
77013;BME280;67260;53.130;17.982;2023-08-21T09:40:41;101707.07;;;45.60;15.41
77013;BME280;67260;53.130;17.982;2023-08-21T09:43:10;101707.38;;;46.38;14.95
77013;BME280;67260;53.130;17.982;2023-08-21T09:45:40;101703.39;;;46.66;14.27
77013;BME280;67260;53.130;17.982;2023-08-21T09:48:07;101698.08;;;46.22;14.17
77013;BME280;67260;53.130;17.982;2023-08-21T09:50:36;101700.76;;;45.42;14.85
77013;BME280;67260;53.130;17.982;2023-08-21T09:53:07;101702.82;;;44.33;15.54
77013;BME280;67260;53.130;17.982;2023-08-21T09:55:34;101701.52;;;43.68;16.42
77013;BME280;67260;53.130;17.982;2023-08-21T09:58:01;101698.39;;;43.14;17.08
77013;BME280;67260;53.130;17.982;2023-08-21T10:00:41;101699.58;;;43.47;17.01
77013;BME280;67260;53.130;17.982;2023-08-21T10:03:09;101698.82;;;43.88;16.69
77013;BME280;67260;53.130;17.982;2023-08-21T10:05:47;101694.10;;;42.80;17.07
77013;BME280;67260;53.130;17.982;2023-08-21T10:08:15;101695.15;;;42.47;17.70
77013;BME280;67260;53.130;17.982;2023-08-21T10:10:42;101695.77;;;41.61;18.42
77013;BME280;67260;53.130;17.982;2023-08-21T10:13:08;101693.06;;;41.63;18.36
77013;BME280;67260;53.130;17.982;2023-08-21T10:15:38;101694.24;;;40.80;18.52
77013;BME280;67260;53.130;17.982;2023-08-21T10:18:30;101695.95;;;40.44;18.88
77013;BME280;67260;53.130;17.982;2023-08-21T10:21:10;101702.00;;;38.84;20.08
77013;BME280;67260;53.130;17.982;2023-08-21T10:23:37;101700.13;;;37.46;21.34
77013;BME280;67260;53.130;17.982;2023-08-21T10:26:06;101698.33;;;36.37;22.48
77013;BME280;67260;53.130;17.982;2023-08-21T10:29:01;101694.55;;;35.82;23.14
77013;BME280;67260;53.130;17.982;2023-08-21T10:31:36;101690.79;;;36.00;23.29
77013;BME280;67260;53.130;17.982;2023-08-21T10:34:06;101691.25;;;36.27;23.17
77013;BME280;67260;53.130;17.982;2023-08-21T10:36:40;101687.33;;;36.70;23.25
77013;BME280;67260;53.130;17.982;2023-08-21T10:39:26;101689.98;;;37.61;22.66
77013;BME280;67260;53.130;17.982;2023-08-21T10:42:08;101686.45;;;38.29;21.81
77013;BME280;67260;53.130;17.982;2023-08-21T10:47:31;101690.02;;;38.66;21.34
77013;BME280;67260;53.130;17.982;2023-08-21T10:49:59;101689.11;;;38.54;21.21
77013;BME280;67260;53.130;17.982;2023-08-21T10:52:30;101688.17;;;38.33;21.78
77013;BME280;67260;53.130;17.982;2023-08-21T10:55:00;101692.16;;;38.03;22.06
77013;BME280;67260;53.130;17.982;2023-08-21T10:57:31;101692.73;;;37.81;22.35
77013;BME280;67260;53.130;17.982;2023-08-21T11:02:56;101691.22;;;37.12;23.58
77013;BME280;67260;53.130;17.982;2023-08-21T11:05:22;101691.73;;;36.72;24.14
77013;BME280;67260;53.130;17.982;2023-08-21T11:07:52;101685.71;;;36.68;24.41
77013;BME280;67260;53.130;17.982;2023-08-21T11:10:31;101692.02;;;36.54;24.80
77013;BME280;67260;53.130;17.982;2023-08-21T11:13:01;101691.17;;;36.00;25.37
77013;BME280;67260;53.130;17.982;2023-08-21T11:15:31;101690.06;;;36.03;25.40
77013;BME280;67260;53.130;17.982;2023-08-21T11:18:06;101688.40;;;35.73;25.48
77013;BME280;67260;53.130;17.982;2023-08-21T11:20:37;101690.40;;;35.23;26.36
77013;BME280;67260;53.130;17.982;2023-08-21T11:23:06;101690.52;;;34.95;26.79
77013;BME280;67260;53.130;17.982;2023-08-21T11:25:38;101692.54;;;34.62;27.17
77013;BME280;67260;53.130;17.982;2023-08-21T11:28:10;101692.23;;;34.51;27.94
77013;BME280;67260;53.130;17.982;2023-08-21T11:30:57;101685.96;;;34.96;27.27
77013;BME280;67260;53.130;17.982;2023-08-21T11:33:23;101687.61;;;34.98;27.13
77013;BME280;67260;53.130;17.982;2023-08-21T11:35:53;101694.56;;;34.86;27.64
77013;BME280;67260;53.130;17.982;2023-08-21T11:38:26;101691.29;;;34.70;27.82
77013;BME280;67260;53.130;17.982;2023-08-21T11:40:57;101695.42;;;34.68;28.41
77013;BME280;67260;53.130;17.982;2023-08-21T11:43:41;101684.15;;;34.88;27.71
77013;BME280;67260;53.130;17.982;2023-08-21T11:46:07;101691.91;;;34.70;28.14
77013;BME280;67260;53.130;17.982;2023-08-21T11:48:42;101686.52;;;34.42;28.30
77013;BME280;67260;53.130;17.982;2023-08-21T11:51:24;101679.27;;;34.20;28.73
77013;BME280;67260;53.130;17.982;2023-08-21T11:54:04;101678.18;;;33.88;29.07
77013;BME280;67260;53.130;17.982;2023-08-21T11:56:38;101683.02;;;33.76;29.40
77013;BME280;67260;53.130;17.982;2023-08-21T11:59:08;101682.88;;;33.80;29.30
77013;BME280;67260;53.130;17.982;2023-08-21T12:01:37;101677.03;;;33.78;29.49
77013;BME280;67260;53.130;17.982;2023-08-21T12:04:14;101678.22;;;33.76;29.55
77013;BME280;67260;53.130;17.982;2023-08-21T12:06:45;101678.61;;;33.85;29.85
77013;BME280;67260;53.130;17.982;2023-08-21T12:09:13;101678.75;;;33.81;29.59
77013;BME280;67260;53.130;17.982;2023-08-21T12:11:44;101684.27;;;33.91;29.48
77013;BME280;67260;53.130;17.982;2023-08-21T12:14:10;101677.25;;;33.99;29.59
77013;BME280;67260;53.130;17.982;2023-08-21T12:16:37;101680.02;;;33.98;29.68
77013;BME280;67260;53.130;17.982;2023-08-21T12:19:53;101678.95;;;34.01;29.78
77013;BME280;67260;53.130;17.982;2023-08-21T12:22:22;101671.73;;;34.08;29.56
77013;BME280;67260;53.130;17.982;2023-08-21T12:24:48;101677.46;;;33.92;29.77
77013;BME280;67260;53.130;17.982;2023-08-21T12:27:17;101671.13;;;33.69;30.09
77013;BME280;67260;53.130;17.982;2023-08-21T12:30:10;101664.77;;;33.53;30.29
77013;BME280;67260;53.130;17.982;2023-08-21T12:32:39;101668.00;;;33.16;31.05
77013;BME280;67260;53.130;17.982;2023-08-21T12:35:06;101667.30;;;32.84;31.31
77013;BME280;67260;53.130;17.982;2023-08-21T12:37:33;101660.19;;;32.98;31.54
77013;BME280;67260;53.130;17.982;2023-08-21T12:39:59;101659.08;;;32.98;31.57
77013;BME280;67260;53.130;17.982;2023-08-21T12:42:25;101662.66;;;32.73;31.75
77013;BME280;67260;53.130;17.982;2023-08-21T12:44:52;101665.99;;;32.37;32.37
77013;BME280;67260;53.130;17.982;2023-08-21T12:47:21;101665.05;;;32.08;32.78
77013;BME280;67260;53.130;17.982;2023-08-21T12:49:58;101657.98;;;31.95;33.10
77013;BME280;67260;53.130;17.982;2023-08-21T12:52:30;101659.37;;;31.80;33.22
77013;BME280;67260;53.130;17.982;2023-08-21T12:54:58;101660.41;;;31.41;33.56
77013;BME280;67260;53.130;17.982;2023-08-21T12:57:34;101670.17;;;30.97;34.42